sensor_id;sensor_type;location;lat;lon;timestamp;pressure;altitude;pressure_sealevel;temperature;humidity
18988;BME280;5494;51.796;10.952;2022-11-18T00:01:30;97418.41;;;4.80;100.00
18988;BME280;5494;51.796;10.952;2022-11-18T00:04:01;97408.59;;;4.70;100.00
18988;BME280;5494;51.796;10.952;2022-11-18T00:06:29;97413.06;;;4.67;100.00
18988;BME280;5494;51.796;10.952;2022-11-18T00:08:58;97406.03;;;4.86;100.00
18988;BME280;5494;51.796;10.952;2022-11-18T00:11:28;97412.69;;;4.74;100.00
18988;BME280;5494;51.796;10.952;2022-11-18T00:14:17;97417.72;;;4.60;100.00
18988;BME280;5494;51.796;10.952;2022-11-18T00:16:49;97416.03;;;4.59;100.00
18988;BME280;5494;51.796;10.952;2022-11-18T00:19:21;97420.75;;;4.51;100.00
18988;BME280;5494;51.796;10.952;2022-11-18T00:21:50;97412.19;;;4.51;100.00
18988;BME280;5494;51.796;10.952;2022-11-18T00:24:20;97416.69;;;4.47;100.00
18988;BME280;5494;51.796;10.952;2022-11-18T00:26:49;97407.44;;;4.43;100.00
18988;BME280;5494;51.796;10.952;2022-11-18T00:29:18;97411.09;;;4.39;100.00
18988;BME280;5494;51.796;10.952;2022-11-18T00:31:48;97405.19;;;4.37;100.00
18988;BME280;5494;51.796;10.952;2022-11-18T00:34:18;97404.97;;;4.42;100.00
18988;BME280;5494;51.796;10.952;2022-11-18T00:36:47;97405.88;;;4.41;100.00
18988;BME280;5494;51.796;10.952;2022-11-18T00:39:18;97404.81;;;4.45;100.00
18988;BME280;5494;51.796;10.952;2022-11-18T00:41:48;97405.19;;;4.37;100.00
18988;BME280;5494;51.796;10.952;2022-11-18T00:44:34;97408.28;;;4.44;100.00
18988;BME280;5494;51.796;10.952;2022-11-18T00:47:03;97425.88;;;4.35;100.00
18988;BME280;5494;51.796;10.952;2022-11-18T00:49:33;97423.44;;;4.32;100.00
18988;BME280;5494;51.796;10.952;2022-11-18T00:52:02;97431.09;;;4.34;100.00
18988;BME280;5494;51.796;10.952;2022-11-18T00:54:31;97421.78;;;4.31;100.00
18988;BME280;5494;51.796;10.952;2022-11-18T00:57:00;97432.22;;;4.28;100.00
18988;BME280;5494;51.796;10.952;2022-11-18T00:59:30;97437.44;;;4.27;100.00
18988;BME280;5494;51.796;10.952;2022-11-18T01:01:58;97434.50;;;4.34;100.00
18988;BME280;5494;51.796;10.952;2022-11-18T01:04:27;97428.13;;;4.42;100.00
18988;BME280;5494;51.796;10.952;2022-11-18T01:06:57;97434.00;;;4.44;100.00
18988;BME280;5494;51.796;10.952;2022-11-18T01:09:25;97439.66;;;4.50;100.00
18988;BME280;5494;51.796;10.952;2022-11-18T01:11:54;97443.03;;;4.35;100.00
18988;BME280;5494;51.796;10.952;2022-11-18T01:14:40;97439.19;;;4.26;100.00
18988;BME280;5494;51.796;10.952;2022-11-18T01:17:08;97447.72;;;4.27;100.00
18988;BME280;5494;51.796;10.952;2022-11-18T01:19:37;97449.53;;;4.25;100.00
18988;BME280;5494;51.796;10.952;2022-11-18T01:22:07;97446.13;;;4.24;100.00
18988;BME280;5494;51.796;10.952;2022-11-18T01:24:36;97455.53;;;4.25;100.00
18988;BME280;5494;51.796;10.952;2022-11-18T01:27:04;97446.03;;;4.43;100.00
18988;BME280;5494;51.796;10.952;2022-11-18T01:29:32;97446.84;;;4.28;100.00
18988;BME280;5494;51.796;10.952;2022-11-18T01:32:01;97446.72;;;4.29;100.00
18988;BME280;5494;51.796;10.952;2022-11-18T01:34:49;97444.53;;;4.39;100.00
18988;BME280;5494;51.796;10.952;2022-11-18T01:37:19;97448.56;;;4.27;100.00
18988;BME280;5494;51.796;10.952;2022-11-18T01:39:48;97440.22;;;4.22;100.00
18988;BME280;5494;51.796;10.952;2022-11-18T01:42:17;97435.91;;;4.23;100.00
18988;BME280;5494;51.796;10.952;2022-11-18T01:45:03;97444.78;;;4.17;100.00
18988;BME280;5494;51.796;10.952;2022-11-18T01:47:41;97445.88;;;4.29;100.00
18988;BME280;5494;51.796;10.952;2022-11-18T01:50:13;97448.19;;;4.18;100.00
18988;BME280;5494;51.796;10.952;2022-11-18T01:52:45;97447.66;;;4.28;100.00
18988;BME280;5494;51.796;10.952;2022-11-18T01:55:23;97451.22;;;4.26;100.00
18988;BME280;5494;51.796;10.952;2022-11-18T01:58:02;97448.31;;;4.32;100.00
18988;BME280;5494;51.796;10.952;2022-11-18T02:00:30;97449.53;;;4.25;100.00
18988;BME280;5494;51.796;10.952;2022-11-18T02:03:01;97457.72;;;4.33;100.00
18988;BME280;5494;51.796;10.952;2022-11-18T02:05:32;97451.06;;;4.12;100.00
18988;BME280;5494;51.796;10.952;2022-11-18T02:08:06;97457.47;;;4.03;100.00
18988;BME280;5494;51.796;10.952;2022-11-18T02:10:35;97453.63;;;3.94;100.00
18988;BME280;5494;51.796;10.952;2022-11-18T02:13:04;97449.91;;;3.83;100.00
18988;BME280;5494;51.796;10.952;2022-11-18T02:15:47;97449.00;;;3.84;100.00
18988;BME280;5494;51.796;10.952;2022-11-18T02:18:29;97462.75;;;3.83;100.00
18988;BME280;5494;51.796;10.952;2022-11-18T02:21:12;97455.28;;;3.78;100.00
18988;BME280;5494;51.796;10.952;2022-11-18T02:24:26;97462.38;;;3.73;100.00
18988;BME280;5494;51.796;10.952;2022-11-18T02:27:46;97468.88;;;3.80;100.00
18988;BME280;5494;51.796;10.952;2022-11-18T02:30:31;97465.94;;;3.71;100.00
18988;BME280;5494;51.796;10.952;2022-11-18T02:33:07;97456.69;;;3.67;100.00
18988;BME280;5494;51.796;10.952;2022-11-18T02:35:42;97460.91;;;3.68;100.00
18988;BME280;5494;51.796;10.952;2022-11-18T02:38:17;97454.44;;;3.78;100.00
18988;BME280;5494;51.796;10.952;2022-11-18T02:40:53;97458.16;;;3.72;100.00
18988;BME280;5494;51.796;10.952;2022-11-18T02:43:29;97464.19;;;3.71;100.00
18988;BME280;5494;51.796;10.952;2022-11-18T02:46:06;97460.97;;;3.85;100.00
18988;BME280;5494;51.796;10.952;2022-11-18T02:48:41;97470.47;;;3.66;100.00
18988;BME280;5494;51.796;10.952;2022-11-18T02:51:15;97469.75;;;3.62;100.00
18988;BME280;5494;51.796;10.952;2022-11-18T02:53:47;97472.03;;;3.68;100.00
18988;BME280;5494;51.796;10.952;2022-11-18T02:56:18;97485.88;;;3.66;100.00
18988;BME280;5494;51.796;10.952;2022-11-18T02:58:48;97469.88;;;3.78;100.00
18988;BME280;5494;51.796;10.952;2022-11-18T03:01:23;97476.19;;;3.71;100.00
18988;BME280;5494;51.796;10.952;2022-11-18T03:03:53;97476.44;;;3.66;100.00
18988;BME280;5494;51.796;10.952;2022-11-18T03:06:29;97481.47;;;3.68;100.00
18988;BME280;5494;51.796;10.952;2022-11-18T03:09:11;97487.38;;;3.70;100.00
18988;BME280;5494;51.796;10.952;2022-11-18T03:11:52;97482.53;;;3.64;100.00
18988;BME280;5494;51.796;10.952;2022-11-18T03:14:33;97482.66;;;3.79;100.00
18988;BME280;5494;51.796;10.952;2022-11-18T03:17:11;97481.41;;;3.69;100.00
18988;BME280;5494;51.796;10.952;2022-11-18T03:20:02;97486.19;;;3.77;100.00
18988;BME280;5494;51.796;10.952;2022-11-18T03:22:40;97490.72;;;3.72;100.00
18988;BME280;5494;51.796;10.952;2022-11-18T03:25:22;97499.69;;;3.63;100.00
18988;BME280;5494;51.796;10.952;2022-11-18T03:28:05;97502.53;;;3.57;100.00
18988;BME280;5494;51.796;10.952;2022-11-18T03:30:42;97500.09;;;3.54;100.00
18988;BME280;5494;51.796;10.952;2022-11-18T03:33:20;97499.63;;;3.46;100.00
18988;BME280;5494;51.796;10.952;2022-11-18T03:35:53;97505.59;;;3.46;100.00
18988;BME280;5494;51.796;10.952;2022-11-18T03:38:29;97510.19;;;3.40;100.00
18988;BME280;5494;51.796;10.952;2022-11-18T03:41:06;97522.28;;;3.38;100.00
18988;BME280;5494;51.796;10.952;2022-11-18T03:43:42;97516.38;;;3.36;100.00
18988;BME280;5494;51.796;10.952;2022-11-18T03:46:18;97532.25;;;3.44;100.00
18988;BME280;5494;51.796;10.952;2022-11-18T03:48:54;97525.38;;;3.26;100.00
18988;BME280;5494;51.796;10.952;2022-11-18T03:51:30;97533.91;;;3.26;100.00
18988;BME280;5494;51.796;10.952;2022-11-18T03:54:06;97534.91;;;3.24;100.00
18988;BME280;5494;51.796;10.952;2022-11-18T03:56:39;97536.75;;;3.20;100.00
18988;BME280;5494;51.796;10.952;2022-11-18T03:59:15;97544.28;;;3.25;100.00
18988;BME280;5494;51.796;10.952;2022-11-18T04:01:52;97547.09;;;3.18;100.00
18988;BME280;5494;51.796;10.952;2022-11-18T04:04:24;97552.50;;;3.12;100.00
18988;BME280;5494;51.796;10.952;2022-11-18T04:07:02;97544.09;;;3.09;100.00
18988;BME280;5494;51.796;10.952;2022-11-18T04:09:36;97550.81;;;3.11;100.00
18988;BME280;5494;51.796;10.952;2022-11-18T04:12:12;97558.78;;;3.05;100.00
18988;BME280;5494;51.796;10.952;2022-11-18T04:14:44;97558.69;;;3.08;100.00
18988;BME280;5494;51.796;10.952;2022-11-18T04:17:19;97552.66;;;3.09;100.00
18988;BME280;5494;51.796;10.952;2022-11-18T04:19:49;97561.09;;;3.11;100.00
18988;BME280;5494;51.796;10.952;2022-11-18T04:22:18;97556.16;;;3.07;100.00
18988;BME280;5494;51.796;10.952;2022-11-18T04:24:46;97560.84;;;3.17;100.00
18988;BME280;5494;51.796;10.952;2022-11-18T04:27:15;97572.06;;;3.15;100.00
18988;BME280;5494;51.796;10.952;2022-11-18T04:29:43;97574.84;;;3.10;100.00
18988;BME280;5494;51.796;10.952;2022-11-18T04:32:12;97583.28;;;3.12;100.00
18988;BME280;5494;51.796;10.952;2022-11-18T04:34:40;97573.75;;;3.16;100.00
18988;BME280;5494;51.796;10.952;2022-11-18T04:37:10;97578.03;;;3.15;100.00
18988;BME280;5494;51.796;10.952;2022-11-18T04:39:38;97586.63;;;3.14;100.00
18988;BME280;5494;51.796;10.952;2022-11-18T04:42:07;97581.72;;;3.10;100.00
18988;BME280;5494;51.796;10.952;2022-11-18T04:44:35;97581.91;;;3.05;100.00
18988;BME280;5494;51.796;10.952;2022-11-18T04:47:05;97579.53;;;3.01;100.00
18988;BME280;5494;51.796;10.952;2022-11-18T04:49:34;97578.84;;;2.97;100.00
18988;BME280;5494;51.796;10.952;2022-11-18T04:52:04;97580.22;;;3.04;100.00
18988;BME280;5494;51.796;10.952;2022-11-18T04:54:34;97583.97;;;2.97;100.00
18988;BME280;5494;51.796;10.952;2022-11-18T04:57:03;97583.25;;;2.94;100.00
18988;BME280;5494;51.796;10.952;2022-11-18T04:59:31;97597.78;;;2.95;100.00
18988;BME280;5494;51.796;10.952;2022-11-18T05:02:00;97585.06;;;2.92;100.00
18988;BME280;5494;51.796;10.952;2022-11-18T05:04:31;97582.56;;;2.90;100.00
18988;BME280;5494;51.796;10.952;2022-11-18T05:07:03;97590.19;;;2.92;100.00
18988;BME280;5494;51.796;10.952;2022-11-18T05:09:33;97596.63;;;2.82;100.00
18988;BME280;5494;51.796;10.952;2022-11-18T05:12:02;97591.56;;;2.80;100.00
18988;BME280;5494;51.796;10.952;2022-11-18T05:14:48;97593.22;;;2.81;100.00
18988;BME280;5494;51.796;10.952;2022-11-18T05:17:18;97598.09;;;2.87;100.00
18988;BME280;5494;51.796;10.952;2022-11-18T05:19:46;97606.09;;;2.80;100.00
18988;BME280;5494;51.796;10.952;2022-11-18T05:22:15;97605.28;;;2.79;100.00
18988;BME280;5494;51.796;10.952;2022-11-18T05:24:45;97614.91;;;2.94;100.00
18988;BME280;5494;51.796;10.952;2022-11-18T05:27:15;97608.63;;;2.81;100.00
18988;BME280;5494;51.796;10.952;2022-11-18T05:29:43;97609.81;;;2.72;100.00
18988;BME280;5494;51.796;10.952;2022-11-18T05:32:12;97611.75;;;2.67;100.00
18988;BME280;5494;51.796;10.952;2022-11-18T05:34:41;97617.66;;;2.69;100.00
18988;BME280;5494;51.796;10.952;2022-11-18T05:37:10;97616.00;;;2.68;100.00
18988;BME280;5494;51.796;10.952;2022-11-18T05:39:38;97621.22;;;2.65;100.00
18988;BME280;5494;51.796;10.952;2022-11-18T05:42:09;97622.66;;;2.72;100.00
18988;BME280;5494;51.796;10.952;2022-11-18T05:44:55;97626.38;;;2.65;100.00
18988;BME280;5494;51.796;10.952;2022-11-18T05:47:25;97620.59;;;2.60;100.00
18988;BME280;5494;51.796;10.952;2022-11-18T05:49:54;97627.50;;;2.58;100.00
18988;BME280;5494;51.796;10.952;2022-11-18T05:52:22;97637.19;;;2.52;100.00
18988;BME280;5494;51.796;10.952;2022-11-18T05:54:50;97639.75;;;2.52;100.00
18988;BME280;5494;51.796;10.952;2022-11-18T05:57:20;97647.50;;;2.50;100.00
18988;BME280;5494;51.796;10.952;2022-11-18T05:59:49;97645.53;;;2.57;100.00
18988;BME280;5494;51.796;10.952;2022-11-18T06:02:22;97648.16;;;2.55;100.00
18988;BME280;5494;51.796;10.952;2022-11-18T06:04:57;97668.09;;;2.49;100.00
18988;BME280;5494;51.796;10.952;2022-11-18T06:07:31;97665.53;;;2.49;100.00
18988;BME280;5494;51.796;10.952;2022-11-18T06:10:04;97661.59;;;2.40;100.00
18988;BME280;5494;51.796;10.952;2022-11-18T06:12:42;97658.88;;;2.43;100.00
18988;BME280;5494;51.796;10.952;2022-11-18T06:15:17;97667.41;;;2.44;100.00
18988;BME280;5494;51.796;10.952;2022-11-18T06:17:52;97669.38;;;2.59;100.00
18988;BME280;5494;51.796;10.952;2022-11-18T06:20:23;97671.59;;;2.68;100.00
18988;BME280;5494;51.796;10.952;2022-11-18T06:22:55;97670.31;;;2.56;100.00
18988;BME280;5494;51.796;10.952;2022-11-18T06:25:25;97673.22;;;2.49;100.00
18988;BME280;5494;51.796;10.952;2022-11-18T06:27:58;97682.94;;;2.41;100.00
18988;BME280;5494;51.796;10.952;2022-11-18T06:30:27;97673.56;;;2.61;100.00
18988;BME280;5494;51.796;10.952;2022-11-18T06:32:56;97681.91;;;2.45;100.00
18988;BME280;5494;51.796;10.952;2022-11-18T06:35:24;97682.94;;;2.41;100.00
18988;BME280;5494;51.796;10.952;2022-11-18T06:37:53;97695.69;;;2.42;100.00
18988;BME280;5494;51.796;10.952;2022-11-18T06:40:21;97703.25;;;2.45;100.00
18988;BME280;5494;51.796;10.952;2022-11-18T06:42:50;97703.47;;;2.41;100.00
18988;BME280;5494;51.796;10.952;2022-11-18T06:45:37;97706.38;;;2.53;100.00
18988;BME280;5494;51.796;10.952;2022-11-18T06:48:06;97699.31;;;2.36;100.00
18988;BME280;5494;51.796;10.952;2022-11-18T06:50:34;97701.00;;;2.37;100.00
18988;BME280;5494;51.796;10.952;2022-11-18T06:53:02;97703.69;;;2.34;100.00
18988;BME280;5494;51.796;10.952;2022-11-18T06:55:31;97705.28;;;2.37;100.00
18988;BME280;5494;51.796;10.952;2022-11-18T06:58:02;97707.00;;;2.36;100.00
18988;BME280;5494;51.796;10.952;2022-11-18T07:00:30;97712.97;;;2.37;100.00
18988;BME280;5494;51.796;10.952;2022-11-18T07:03:01;97712.03;;;2.40;100.00
18988;BME280;5494;51.796;10.952;2022-11-18T07:05:29;97713.16;;;2.32;100.00
18988;BME280;5494;51.796;10.952;2022-11-18T07:07:58;97714.84;;;2.33;100.00
18988;BME280;5494;51.796;10.952;2022-11-18T07:10:26;97716.63;;;2.31;100.00
18988;BME280;5494;51.796;10.952;2022-11-18T07:12:55;97719.00;;;2.36;100.00
18988;BME280;5494;51.796;10.952;2022-11-18T07:15:23;97729.38;;;2.33;100.00
18988;BME280;5494;51.796;10.952;2022-11-18T07:17:52;97727.41;;;2.40;100.00
18988;BME280;5494;51.796;10.952;2022-11-18T07:20:22;97732.78;;;2.33;100.00
18988;BME280;5494;51.796;10.952;2022-11-18T07:22:51;97731.28;;;2.28;100.00
18988;BME280;5494;51.796;10.952;2022-11-18T07:25:20;97737.06;;;2.33;100.00
18988;BME280;5494;51.796;10.952;2022-11-18T07:27:48;97735.41;;;2.32;100.00
18988;BME280;5494;51.796;10.952;2022-11-18T07:30:17;97743.75;;;2.37;100.00
18988;BME280;5494;51.796;10.952;2022-11-18T07:32:45;97748.41;;;2.27;100.00
18988;BME280;5494;51.796;10.952;2022-11-18T07:35:14;97750.00;;;2.30;100.00
18988;BME280;5494;51.796;10.952;2022-11-18T07:37:45;97746.00;;;2.23;100.00
18988;BME280;5494;51.796;10.952;2022-11-18T07:40:14;97753.53;;;2.27;100.00
18988;BME280;5494;51.796;10.952;2022-11-18T07:42:43;97752.78;;;2.24;100.00
18988;BME280;5494;51.796;10.952;2022-11-18T07:45:23;97769.78;;;2.26;100.00
18988;BME280;5494;51.796;10.952;2022-11-18T07:47:53;97763.78;;;2.27;100.00
18988;BME280;5494;51.796;10.952;2022-11-18T07:50:21;97773.47;;;2.19;100.00
18988;BME280;5494;51.796;10.952;2022-11-18T07:52:54;97776.13;;;2.16;100.00
18988;BME280;5494;51.796;10.952;2022-11-18T07:55:23;97774.53;;;2.14;100.00
18988;BME280;5494;51.796;10.952;2022-11-18T07:57:58;97780.50;;;2.14;100.00
18988;BME280;5494;51.796;10.952;2022-11-18T08:00:26;97789.13;;;2.12;100.00
18988;BME280;5494;51.796;10.952;2022-11-18T08:02:55;97795.31;;;2.06;100.00
18988;BME280;5494;51.796;10.952;2022-11-18T08:05:23;97788.00;;;1.95;100.00
18988;BME280;5494;51.796;10.952;2022-11-18T08:07:53;97794.97;;;1.92;100.00
18988;BME280;5494;51.796;10.952;2022-11-18T08:10:21;97798.72;;;1.82;100.00
18988;BME280;5494;51.796;10.952;2022-11-18T08:12:51;97806.41;;;1.82;100.00
18988;BME280;5494;51.796;10.952;2022-11-18T08:15:19;97810.63;;;1.84;100.00
18988;BME280;5494;51.796;10.952;2022-11-18T08:17:47;97804.53;;;1.87;100.00
18988;BME280;5494;51.796;10.952;2022-11-18T08:20:16;97796.03;;;1.86;100.00
18988;BME280;5494;51.796;10.952;2022-11-18T08:22:45;97803.91;;;1.80;100.00
18988;BME280;5494;51.796;10.952;2022-11-18T08:25:15;97806.00;;;1.69;100.00
18988;BME280;5494;51.796;10.952;2022-11-18T08:27:43;97810.25;;;1.70;100.00
18988;BME280;5494;51.796;10.952;2022-11-18T08:30:13;97811.97;;;1.70;100.00
18988;BME280;5494;51.796;10.952;2022-11-18T08:32:41;97807.16;;;1.61;100.00
18988;BME280;5494;51.796;10.952;2022-11-18T08:35:09;97823.53;;;1.56;100.00
18988;BME280;5494;51.796;10.952;2022-11-18T08:37:38;97816.63;;;1.58;100.00
18988;BME280;5494;51.796;10.952;2022-11-18T08:40:09;97817.47;;;1.59;100.00
18988;BME280;5494;51.796;10.952;2022-11-18T08:42:38;97824.19;;;1.62;100.00
18988;BME280;5494;51.796;10.952;2022-11-18T08:45:08;97830.19;;;1.61;100.00
18988;BME280;5494;51.796;10.952;2022-11-18T08:47:37;97834.06;;;1.47;100.00
18988;BME280;5494;51.796;10.952;2022-11-18T08:50:08;97834.94;;;1.46;100.00
18988;BME280;5494;51.796;10.952;2022-11-18T08:52:37;97845.34;;;1.42;100.00
18988;BME280;5494;51.796;10.952;2022-11-18T08:55:06;97842.53;;;1.49;100.00
18988;BME280;5494;51.796;10.952;2022-11-18T08:57:35;97837.28;;;1.52;100.00
18988;BME280;5494;51.796;10.952;2022-11-18T09:00:06;97846.97;;;1.44;100.00
18988;BME280;5494;51.796;10.952;2022-11-18T09:02:35;97851.09;;;1.48;100.00
18988;BME280;5494;51.796;10.952;2022-11-18T09:05:04;97854.66;;;1.44;100.00
18988;BME280;5494;51.796;10.952;2022-11-18T09:07:33;97851.31;;;1.42;100.00
18988;BME280;5494;51.796;10.952;2022-11-18T09:10:02;97845.97;;;1.48;100.00
18988;BME280;5494;51.796;10.952;2022-11-18T09:12:31;97859.84;;;1.41;100.00
18988;BME280;5494;51.796;10.952;2022-11-18T09:14:59;97860.06;;;1.35;100.00
18988;BME280;5494;51.796;10.952;2022-11-18T09:17:45;97862.81;;;1.29;100.00
18988;BME280;5494;51.796;10.952;2022-11-18T09:20:14;97863.41;;;1.37;100.00
18988;BME280;5494;51.796;10.952;2022-11-18T09:22:43;97861.63;;;1.39;100.00
18988;BME280;5494;51.796;10.952;2022-11-18T09:25:11;97867.38;;;1.46;100.00
18988;BME280;5494;51.796;10.952;2022-11-18T09:27:40;97876.09;;;1.40;100.00
18988;BME280;5494;51.796;10.952;2022-11-18T09:30:09;97875.22;;;1.41;100.00
18988;BME280;5494;51.796;10.952;2022-11-18T09:32:38;97878.81;;;1.36;100.00
18988;BME280;5494;51.796;10.952;2022-11-18T09:35:08;97878.78;;;1.37;100.00
18988;BME280;5494;51.796;10.952;2022-11-18T09:37:36;97881.91;;;1.45;100.00
18988;BME280;5494;51.796;10.952;2022-11-18T09:40:12;97887.38;;;1.61;100.00
18988;BME280;5494;51.796;10.952;2022-11-18T09:42:55;97890.59;;;1.41;100.00
18988;BME280;5494;51.796;10.952;2022-11-18T09:45:34;97889.09;;;1.34;100.00
18988;BME280;5494;51.796;10.952;2022-11-18T09:48:15;97892.41;;;1.38;100.00
18988;BME280;5494;51.796;10.952;2022-11-18T09:50:46;97902.19;;;1.25;100.00
18988;BME280;5494;51.796;10.952;2022-11-18T09:53:20;97904.88;;;1.21;100.00
18988;BME280;5494;51.796;10.952;2022-11-18T09:55:50;97900.41;;;1.27;100.00
18988;BME280;5494;51.796;10.952;2022-11-18T09:58:26;97902.38;;;1.19;100.00
18988;BME280;5494;51.796;10.952;2022-11-18T10:00:59;97911.69;;;1.22;100.00
18988;BME280;5494;51.796;10.952;2022-11-18T10:03:31;97905.25;;;1.36;100.00
18988;BME280;5494;51.796;10.952;2022-11-18T10:06:12;97915.81;;;1.26;100.00
18988;BME280;5494;51.796;10.952;2022-11-18T10:09:03;97919.59;;;1.14;100.00
18988;BME280;5494;51.796;10.952;2022-11-18T10:11:41;97925.50;;;1.16;100.00
18988;BME280;5494;51.796;10.952;2022-11-18T10:14:37;97921.06;;;1.21;100.00
18988;BME280;5494;51.796;10.952;2022-11-18T10:17:27;97923.19;;;1.08;100.00
18988;BME280;5494;51.796;10.952;2022-11-18T10:20:19;97942.28;;;0.97;100.00
18988;BME280;5494;51.796;10.952;2022-11-18T10:22:55;97937.03;;;1.01;100.00
18988;BME280;5494;51.796;10.952;2022-11-18T10:25:25;97940.66;;;0.94;100.00
18988;BME280;5494;51.796;10.952;2022-11-18T10:27:55;97951.81;;;0.92;100.00
18988;BME280;5494;51.796;10.952;2022-11-18T10:30:27;97940.72;;;0.91;100.00
18988;BME280;5494;51.796;10.952;2022-11-18T10:32:59;97951.91;;;0.89;100.00
18988;BME280;5494;51.796;10.952;2022-11-18T10:35:31;97949.53;;;0.83;100.00
18988;BME280;5494;51.796;10.952;2022-11-18T10:38:06;97953.66;;;0.87;100.00
18988;BME280;5494;51.796;10.952;2022-11-18T10:40:54;97957.94;;;0.86;100.00
18988;BME280;5494;51.796;10.952;2022-11-18T10:43:48;97958.81;;;0.85;100.00
18988;BME280;5494;51.796;10.952;2022-11-18T10:46:24;97968.09;;;0.89;100.00
18988;BME280;5494;51.796;10.952;2022-11-18T10:49:14;97964.94;;;0.79;100.00
18988;BME280;5494;51.796;10.952;2022-11-18T10:51:46;97970.75;;;0.85;100.00
18988;BME280;5494;51.796;10.952;2022-11-18T10:54:19;97974.31;;;0.81;100.00
18988;BME280;5494;51.796;10.952;2022-11-18T10:56:52;97975.19;;;0.79;100.00
18988;BME280;5494;51.796;10.952;2022-11-18T10:59:30;97969.63;;;0.64;100.00
18988;BME280;5494;51.796;10.952;2022-11-18T11:02:10;97972.94;;;0.69;100.00
18988;BME280;5494;51.796;10.952;2022-11-18T11:04:44;97975.38;;;0.72;100.00
18988;BME280;5494;51.796;10.952;2022-11-18T11:07:24;97977.72;;;0.79;100.00
18988;BME280;5494;51.796;10.952;2022-11-18T11:10:20;97981.19;;;0.77;100.00
18988;BME280;5494;51.796;10.952;2022-11-18T11:13:00;97981.50;;;0.66;100.00
18988;BME280;5494;51.796;10.952;2022-11-18T11:15:37;97991.97;;;0.57;100.00
18988;BME280;5494;51.796;10.952;2022-11-18T11:18:14;97986.78;;;0.60;100.00
18988;BME280;5494;51.796;10.952;2022-11-18T11:21:02;97994.50;;;0.59;100.00
18988;BME280;5494;51.796;10.952;2022-11-18T11:23:32;98000.63;;;0.53;100.00
18988;BME280;5494;51.796;10.952;2022-11-18T11:26:08;97992.84;;;0.56;100.00
18988;BME280;5494;51.796;10.952;2022-11-18T11:29:09;98002.19;;;0.57;100.00
18988;BME280;5494;51.796;10.952;2022-11-18T11:31:51;97999.06;;;0.48;100.00
18988;BME280;5494;51.796;10.952;2022-11-18T11:34:32;97996.41;;;0.51;100.00
18988;BME280;5494;51.796;10.952;2022-11-18T11:37:19;98011.03;;;0.46;100.00
18988;BME280;5494;51.796;10.952;2022-11-18T11:40:17;98002.75;;;0.36;100.00
18988;BME280;5494;51.796;10.952;2022-11-18T11:43:05;98004.38;;;0.40;100.00
18988;BME280;5494;51.796;10.952;2022-11-18T11:45:51;98010.19;;;0.45;100.00
18988;BME280;5494;51.796;10.952;2022-11-18T11:48:37;98021.41;;;0.41;100.00
18988;BME280;5494;51.796;10.952;2022-11-18T11:51:20;98011.25;;;0.38;100.00
18988;BME280;5494;51.796;10.952;2022-11-18T11:57:20;98008.66;;;0.39;100.00
18988;BME280;5494;51.796;10.952;2022-11-18T12:00:00;98023.22;;;0.36;100.00
18988;BME280;5494;51.796;10.952;2022-11-18T12:03:06;98020.91;;;0.27;100.00
18988;BME280;5494;51.796;10.952;2022-11-18T12:05:39;98015.66;;;0.31;100.00
18988;BME280;5494;51.796;10.952;2022-11-18T12:08:15;98008.88;;;0.30;100.00
18988;BME280;5494;51.796;10.952;2022-11-18T12:10:52;98025.94;;;0.30;100.00
18988;BME280;5494;51.796;10.952;2022-11-18T12:13:36;98028.56;;;0.27;100.00
18988;BME280;5494;51.796;10.952;2022-11-18T12:16:23;98025.22;;;0.25;100.00
18988;BME280;5494;51.796;10.952;2022-11-18T12:18:57;98045.66;;;0.25;100.00
18988;BME280;5494;51.796;10.952;2022-11-18T12:21:59;98036.13;;;0.31;100.00
18988;BME280;5494;51.796;10.952;2022-11-18T12:24:35;98035.34;;;0.28;100.00
18988;BME280;5494;51.796;10.952;2022-11-18T12:27:12;98040.16;;;0.40;100.00
18988;BME280;5494;51.796;10.952;2022-11-18T12:29:53;98051.50;;;0.28;100.00
18988;BME280;5494;51.796;10.952;2022-11-18T12:32:35;98051.25;;;0.39;100.00
18988;BME280;5494;51.796;10.952;2022-11-18T12:35:25;98052.34;;;0.29;100.00
18988;BME280;5494;51.796;10.952;2022-11-18T12:38:01;98053.31;;;0.25;100.00
18988;BME280;5494;51.796;10.952;2022-11-18T12:40:38;98062.72;;;0.23;100.00
18988;BME280;5494;51.796;10.952;2022-11-18T12:46:51;98049.38;;;0.12;100.00
18988;BME280;5494;51.796;10.952;2022-11-18T12:50:13;98058.75;;;0.11;100.00
18988;BME280;5494;51.796;10.952;2022-11-18T12:52:50;98066.47;;;0.10;100.00
18988;BME280;5494;51.796;10.952;2022-11-18T12:55:32;98062.41;;;0.01;100.00
18988;BME280;5494;51.796;10.952;2022-11-18T12:58:00;98069.09;;;0.07;100.00
18988;BME280;5494;51.796;10.952;2022-11-18T13:00:32;98075.09;;;0.04;100.00
18988;BME280;5494;51.796;10.952;2022-11-18T13:03:24;98083.00;;;-0.07;100.00
18988;BME280;5494;51.796;10.952;2022-11-18T13:06:12;98083.13;;;-0.11;100.00
18988;BME280;5494;51.796;10.952;2022-11-18T13:08:49;98091.72;;;-0.15;100.00
18988;BME280;5494;51.796;10.952;2022-11-18T13:11:18;98090.47;;;0.03;100.00
18988;BME280;5494;51.796;10.952;2022-11-18T13:14:15;98099.09;;;-0.02;100.00
18988;BME280;5494;51.796;10.952;2022-11-18T13:17:04;98105.09;;;-0.04;100.00
18988;BME280;5494;51.796;10.952;2022-11-18T13:20:20;98092.31;;;-0.04;100.00
18988;BME280;5494;51.796;10.952;2022-11-18T13:22:52;98095.66;;;-0.01;100.00
18988;BME280;5494;51.796;10.952;2022-11-18T13:25:38;98095.56;;;0.03;100.00
18988;BME280;5494;51.796;10.952;2022-11-18T13:28:24;98097.44;;;-0.04;100.00
18988;BME280;5494;51.796;10.952;2022-11-18T13:31:04;98103.41;;;-0.05;100.00
18988;BME280;5494;51.796;10.952;2022-11-18T13:33:36;98097.47;;;-0.06;100.00
18988;BME280;5494;51.796;10.952;2022-11-18T13:36:16;98094.56;;;0.10;100.00
18988;BME280;5494;51.796;10.952;2022-11-18T13:38:56;98097.13;;;0.10;100.00
18988;BME280;5494;51.796;10.952;2022-11-18T13:41:26;98099.00;;;0.02;100.00
18988;BME280;5494;51.796;10.952;2022-11-18T13:44:17;98109.22;;;0.02;100.00
18988;BME280;5494;51.796;10.952;2022-11-18T13:46:50;98107.63;;;-0.03;100.00